Kings Canyon, California
Current Conditions -  °F | °C
As of 10:56 PM on Sunday 21 Dec 2014 (Local Time) from KBIH Reporting Station
Clear Clear  
Wind Chill: 45°   Ceiling: Unl
Heat Index: 49°   Visibility: 10mi
Dew Point: 33°   Wind: 9mph
Humidity: 54%   Direction: 300°WNW
Pressure: 30.23"   Gusts: NA
Location:  36.7872°N, 118.66°W
Report Text: KBIH 220656Z AUTO 30008KT 10SM CLR 09/01 A3023 RMK AO2 SLP219 T00940006
Loading
Personal Weather Stations






























Interactive Weather Map New forecast layout! Learn more

10-Day Weather Forecast

Advertisements
Track Severe Weather on mobile